createdAt,value
2023-02-05T00:00:16.409Z,12.97
2023-02-05T00:02:43.975Z,11.60
2023-02-05T00:05:11.509Z,15.37
2023-02-05T00:07:39.042Z,13.10
2023-02-05T00:10:06.743Z,15.13
2023-02-05T00:12:34.268Z,16.33
2023-02-05T00:15:01.803Z,14.30
2023-02-05T00:17:29.389Z,15.13
2023-02-05T00:19:56.922Z,16.37
2023-02-05T00:22:25.222Z,16.13
2023-02-05T00:24:52.762Z,15.27
2023-02-05T00:27:20.293Z,18.90
2023-02-05T00:29:47.828Z,13.77
2023-02-05T00:32:15.393Z,17.53
2023-02-05T00:34:42.940Z,16.97
2023-02-05T00:37:10.454Z,10.57
2023-02-05T00:39:38.036Z,13.77
2023-02-05T00:42:05.572Z,16.23
2023-02-05T00:44:33.864Z,16.57
2023-02-05T00:47:01.421Z,16.97
2023-02-05T00:49:28.972Z,16.33
2023-02-05T00:51:56.509Z,16.63
2023-02-05T00:54:25.569Z,17.07
2023-02-05T00:56:53.093Z,15.53
2023-02-05T00:59:20.944Z,19.47
2023-02-05T01:01:48.981Z,14.33
2023-02-05T01:04:16.536Z,19.10
2023-02-05T01:06:44.065Z,15.70
2023-02-05T01:09:11.628Z,15.80
2023-02-05T01:11:39.162Z,14.00
2023-02-05T01:14:06.707Z,14.50
2023-02-05T01:16:35.050Z,20.37
2023-02-05T01:19:02.598Z,13.13
2023-02-05T01:21:30.129Z,15.90
2023-02-05T01:23:57.752Z,17.40
2023-02-05T01:26:25.253Z,19.57
2023-02-05T01:28:52.790Z,15.97
2023-02-05T01:31:20.404Z,17.00
2023-02-05T01:33:47.882Z,17.07
2023-02-05T01:36:15.411Z,18.33
2023-02-05T01:38:42.985Z,14.63
2023-02-05T01:41:10.518Z,16.57
2023-02-05T01:43:38.062Z,15.33
2023-02-05T01:46:14.789Z,17.93
2023-02-05T01:48:42.268Z,13.77
2023-02-05T01:51:10.552Z,14.77
2023-02-05T01:53:38.103Z,13.53
2023-02-05T01:56:05.628Z,17.43
2023-02-05T01:58:33.174Z,21.97
2023-02-05T02:01:01.033Z,16.33
2023-02-05T02:03:28.560Z,20.88
2023-02-05T02:05:56.078Z,16.00
2023-02-05T02:08:23.649Z,13.87
2023-02-05T02:10:51.949Z,19.03
2023-02-05T02:13:19.503Z,16.10
2023-02-05T02:15:47.089Z,15.50
2023-02-05T02:18:27.356Z,17.73
2023-02-05T02:21:10.786Z,17.57
2023-02-05T02:23:41.009Z,17.80
2023-02-05T02:26:16.995Z,17.07
2023-02-05T02:29:02.648Z,19.50
2023-02-05T02:31:30.280Z,18.50
2023-02-05T02:34:03.512Z,18.60
2023-02-05T02:36:52.511Z,17.40
2023-02-05T02:39:29.045Z,16.08
2023-02-05T02:42:15.120Z,15.53
2023-02-05T02:44:48.376Z,18.57
2023-02-05T02:47:18.395Z,17.30
2023-02-05T02:49:45.939Z,18.93
2023-02-05T02:52:14.244Z,17.13
2023-02-05T02:54:41.780Z,18.70
2023-02-05T02:57:10.422Z,18.08
2023-02-05T02:59:37.932Z,13.57
2023-02-05T03:02:05.466Z,16.83
2023-02-05T03:04:35.475Z,15.77
2023-02-05T03:07:03.001Z,16.27
2023-02-05T03:09:49.087Z,19.80
2023-02-05T03:12:16.609Z,16.97
2023-02-05T03:14:44.918Z,18.90
2023-02-05T03:17:12.752Z,17.37
2023-02-05T03:19:41.097Z,15.20
2023-02-05T03:22:08.592Z,16.57
2023-02-05T03:24:36.922Z,16.43
2023-02-05T03:27:04.459Z,14.00
2023-02-05T03:29:31.980Z,17.30
2023-02-05T03:32:15.439Z,16.70
2023-02-05T03:34:54.719Z,17.37
2023-02-05T03:37:28.012Z,15.87
2023-02-05T03:40:10.334Z,12.97
2023-02-05T03:42:52.828Z,16.23
2023-02-05T03:45:23.313Z,14.60
2023-02-05T03:47:53.304Z,14.90
2023-02-05T03:50:24.824Z,16.33
2023-02-05T03:52:52.361Z,17.40
2023-02-05T03:55:19.920Z,19.37
2023-02-05T03:57:53.093Z,17.33
2023-02-05T04:00:20.606Z,16.00
2023-02-05T04:02:48.894Z,17.73
2023-02-05T04:05:17.228Z,16.97
2023-02-05T04:07:44.763Z,14.17
2023-02-05T04:10:12.302Z,17.10
2023-02-05T04:12:39.874Z,17.70
2023-02-05T04:15:07.479Z,19.00
2023-02-05T04:17:35.002Z,17.33
2023-02-05T04:20:02.545Z,15.57
2023-02-05T04:22:30.079Z,13.23
2023-02-05T04:24:58.393Z,15.33
2023-02-05T04:27:25.958Z,14.93
2023-02-05T04:29:53.494Z,21.40
2023-02-05T04:32:21.042Z,17.90
2023-02-05T04:34:50.184Z,18.30
2023-02-05T04:37:17.719Z,16.23
2023-02-05T04:39:45.262Z,17.90
2023-02-05T04:42:13.577Z,17.10
2023-02-05T04:44:41.115Z,14.63
2023-02-05T04:47:08.635Z,15.50
2023-02-05T04:49:36.988Z,14.53
2023-02-05T04:52:04.526Z,15.77
2023-02-05T04:54:32.056Z,15.13
2023-02-05T04:56:59.623Z,14.53
2023-02-05T04:59:27.187Z,16.30
2023-02-05T05:01:55.439Z,16.87
2023-02-05T05:04:23.014Z,16.97
2023-02-05T05:06:50.548Z,14.43
2023-02-05T05:09:18.861Z,14.20
2023-02-05T05:11:46.434Z,15.93
2023-02-05T05:14:13.968Z,17.37
2023-02-05T05:16:41.493Z,19.53
2023-02-05T05:19:09.930Z,16.03
2023-02-05T05:21:37.378Z,16.50
2023-02-05T05:24:04.898Z,20.42
2023-02-05T05:26:33.231Z,19.00
2023-02-05T05:29:00.783Z,21.53
2023-02-05T05:31:28.331Z,20.77
2023-02-05T05:33:55.901Z,22.20
2023-02-05T05:36:23.433Z,21.03
2023-02-05T05:38:50.980Z,21.93
2023-02-05T05:41:40.101Z,20.03
2023-02-05T05:44:07.637Z,19.57
2023-02-05T05:46:35.191Z,27.95
2023-02-05T05:49:02.758Z,25.77
2023-02-05T05:51:30.286Z,26.30
2023-02-05T05:53:57.813Z,18.60
2023-02-05T05:56:25.389Z,23.83
2023-02-05T05:58:53.687Z,21.83
2023-02-05T06:01:21.234Z,24.13
2023-02-05T06:03:49.564Z,24.50
2023-02-05T06:06:17.121Z,29.00
2023-02-05T06:08:44.624Z,23.83
2023-02-05T06:11:12.508Z,20.00
2023-02-05T06:13:40.051Z,17.13
2023-02-05T06:16:08.380Z,15.90
2023-02-05T06:18:35.917Z,18.87
2023-02-05T06:21:03.446Z,18.93
2023-02-05T06:23:31.029Z,20.40
2023-02-05T06:25:58.579Z,22.60
2023-02-05T06:28:26.118Z,27.47
2023-02-05T06:30:53.731Z,24.97
2023-02-05T06:33:21.229Z,30.90
2023-02-05T06:35:49.537Z,33.65
2023-02-05T06:38:17.118Z,31.97
2023-02-05T06:40:44.686Z,28.73
2023-02-05T06:43:12.240Z,28.30
2023-02-05T06:45:39.772Z,32.20
2023-02-05T06:48:07.331Z,26.57
2023-02-05T06:50:34.870Z,27.07
2023-02-05T06:53:02.425Z,27.53
2023-02-05T06:55:30.747Z,25.80
2023-02-05T06:57:58.289Z,24.10
2023-02-05T07:00:25.829Z,26.17
2023-02-05T07:02:54.212Z,21.80
2023-02-05T07:05:21.725Z,18.50
2023-02-05T07:07:49.977Z,17.33
2023-02-05T07:10:16.842Z,17.67
2023-02-05T07:12:44.377Z,17.00
2023-02-05T07:15:11.958Z,15.10
2023-02-05T07:17:39.537Z,12.33
2023-02-05T07:20:07.088Z,13.03
2023-02-05T07:22:34.613Z,9.70
2023-02-05T07:25:04.212Z,10.90
2023-02-05T07:27:29.736Z,11.90
2023-02-05T07:29:57.286Z,11.60
2023-02-05T07:32:25.597Z,11.50
2023-02-05T07:34:53.127Z,12.07
2023-02-05T07:37:21.635Z,11.57
2023-02-05T07:39:49.146Z,9.90
2023-02-05T07:42:16.670Z,9.53
2023-02-05T07:44:44.981Z,9.57
2023-02-05T07:47:12.544Z,11.97
2023-02-05T07:49:40.089Z,11.87
2023-02-05T07:52:07.649Z,11.17
2023-02-05T07:54:35.225Z,12.47
2023-02-05T07:57:03.248Z,10.80
2023-02-05T07:59:30.308Z,12.63
2023-02-05T08:01:58.650Z,15.97
2023-02-05T08:04:26.215Z,14.37
2023-02-05T08:06:53.720Z,16.15
2023-02-05T08:09:21.568Z,15.13
2023-02-05T08:11:49.872Z,14.20
2023-02-05T08:14:17.441Z,13.33
2023-02-05T08:16:45.119Z,14.43
2023-02-05T08:19:15.855Z,15.40
2023-02-05T08:21:43.338Z,14.40
2023-02-05T08:24:11.260Z,15.47
2023-02-05T08:26:38.789Z,13.30
2023-02-05T08:29:06.323Z,15.57
2023-02-05T08:31:33.944Z,13.50
2023-02-05T08:34:01.471Z,13.90
2023-02-05T08:36:29.000Z,15.00
2023-02-05T08:38:56.571Z,14.23
2023-02-05T08:41:24.859Z,13.43
2023-02-05T08:43:53.180Z,14.37
2023-02-05T08:46:20.773Z,14.37
2023-02-05T08:48:48.303Z,15.30
2023-02-05T08:51:15.861Z,15.63
2023-02-05T08:53:43.406Z,15.90
2023-02-05T08:56:11.108Z,15.27
2023-02-05T08:58:39.238Z,16.30
2023-02-05T09:01:10.195Z,14.57
2023-02-05T09:03:38.441Z,15.83
2023-02-05T09:06:05.985Z,17.87
2023-02-05T09:08:34.988Z,15.70
2023-02-05T09:11:02.780Z,15.23
2023-02-05T09:13:30.301Z,18.67
2023-02-05T09:15:57.836Z,18.77
2023-02-05T09:18:25.414Z,16.43
2023-02-05T09:20:53.706Z,15.00
2023-02-05T09:23:21.234Z,16.17
2023-02-05T09:25:49.590Z,13.70
2023-02-05T09:28:17.263Z,15.23
2023-02-05T09:30:44.716Z,12.63
2023-02-05T09:33:13.049Z,10.57
2023-02-05T09:35:40.590Z,10.07
2023-02-05T09:38:08.867Z,8.90
2023-02-05T09:40:45.103Z,8.83
2023-02-05T09:43:15.030Z,10.77
2023-02-05T09:45:49.198Z,11.40
2023-02-05T09:48:35.415Z,12.20
2023-02-05T09:51:02.950Z,11.43
2023-02-05T09:53:30.489Z,11.35
2023-02-05T09:55:58.094Z,13.03
2023-02-05T09:58:25.609Z,9.47
2023-02-05T10:01:05.081Z,9.10
2023-02-05T10:03:35.301Z,9.43
2023-02-05T10:06:24.325Z,8.90
2023-02-05T10:09:29.420Z,8.30
2023-02-05T10:12:03.146Z,8.20
2023-02-05T10:14:39.308Z,6.17
2023-02-05T10:17:25.637Z,7.00
2023-02-05T10:20:14.598Z,7.67
2023-02-05T10:22:56.853Z,5.97
2023-02-05T10:25:30.797Z,7.20
2023-02-05T10:28:04.624Z,5.07
2023-02-05T10:30:44.598Z,3.67
2023-02-05T10:33:18.164Z,4.93
2023-02-05T10:36:00.352Z,1.27
2023-02-05T10:38:28.241Z,0.50
2023-02-05T10:40:55.767Z,0.57
2023-02-05T10:43:45.285Z,0.60
2023-02-05T10:46:12.870Z,0.73
2023-02-05T10:48:45.904Z,1.27
2023-02-05T10:51:16.557Z,5.03
2023-02-05T10:53:44.081Z,0.53
2023-02-05T10:56:11.612Z,0.50
2023-02-05T10:58:45.677Z,0.83
2023-02-05T11:01:16.274Z,0.57
2023-02-05T11:04:02.100Z,0.20
2023-02-05T11:06:29.624Z,1.48
2023-02-05T11:08:57.919Z,0.23
2023-02-05T11:11:25.490Z,1.57
2023-02-05T11:13:53.010Z,1.67
2023-02-05T11:16:21.332Z,1.13
2023-02-05T11:18:48.875Z,0.63
2023-02-05T11:21:16.401Z,0.43
2023-02-05T11:23:44.709Z,0.70
2023-02-05T11:26:21.328Z,1.20
2023-02-05T11:28:48.863Z,0.83
2023-02-05T11:31:22.595Z,1.25
2023-02-05T11:33:50.068Z,1.13
2023-02-05T11:36:24.356Z,1.65
2023-02-05T11:38:54.540Z,0.80
2023-02-05T11:41:31.108Z,0.40
2023-02-05T11:43:58.582Z,1.93
2023-02-05T11:46:26.221Z,0.80
2023-02-05T11:48:59.226Z,1.07
2023-02-05T11:51:45.308Z,1.77
2023-02-05T11:54:12.834Z,2.50
2023-02-05T11:56:41.128Z,1.63
2023-02-05T11:59:17.589Z,1.60
2023-02-05T12:01:45.957Z,1.40
2023-02-05T12:04:13.431Z,3.03
2023-02-05T12:06:43.968Z,3.77
2023-02-05T12:09:11.501Z,4.27
2023-02-05T12:12:04.607Z,3.97
2023-02-05T12:14:34.835Z,1.43
2023-02-05T12:17:04.891Z,3.80
2023-02-05T12:19:32.598Z,3.80
2023-02-05T12:22:03.174Z,1.07
2023-02-05T12:24:50.072Z,1.10
2023-02-05T12:27:32.636Z,3.70
2023-02-05T12:30:21.299Z,6.20
2023-02-05T12:33:03.510Z,2.80
2023-02-05T12:36:04.533Z,2.57
2023-02-05T12:38:35.757Z,3.40
2023-02-05T12:41:16.160Z,1.33
2023-02-05T12:43:49.349Z,3.47
2023-02-05T12:46:26.623Z,5.70
2023-02-05T12:49:11.899Z,2.10
2023-02-05T12:51:57.613Z,4.50
2023-02-05T12:54:43.628Z,3.70
2023-02-05T12:57:13.927Z,4.07
2023-02-05T12:59:44.440Z,3.63
2023-02-05T13:02:32.868Z,3.03
2023-02-05T13:05:12.958Z,6.30
2023-02-05T13:07:43.164Z,6.30
2023-02-05T13:10:16.847Z,8.07
2023-02-05T13:12:44.652Z,4.87
2023-02-05T13:15:15.266Z,7.93
2023-02-05T13:17:42.801Z,7.03
2023-02-05T13:20:22.683Z,4.57
2023-02-05T13:23:05.083Z,9.10
2023-02-05T13:25:53.526Z,6.03
2023-02-05T13:28:41.804Z,5.93
2023-02-05T13:31:21.625Z,7.57
2023-02-05T13:33:49.786Z,6.73
2023-02-05T13:36:26.408Z,6.57
2023-02-05T13:38:59.436Z,4.83
2023-02-05T13:41:35.557Z,7.10
2023-02-05T13:44:08.594Z,8.47
2023-02-05T13:46:44.987Z,5.53
2023-02-05T13:49:49.782Z,9.67
2023-02-05T13:52:26.009Z,8.73
2023-02-05T13:55:00.311Z,6.07
2023-02-05T13:58:01.528Z,7.87
2023-02-05T14:00:29.067Z,6.03
2023-02-05T14:02:56.608Z,4.07
2023-02-05T14:05:33.347Z,7.97
2023-02-05T14:08:00.613Z,3.93
2023-02-05T14:10:34.264Z,7.77
2023-02-05T14:13:13.867Z,8.40
2023-02-05T14:15:41.445Z,8.68
2023-02-05T14:18:08.937Z,7.60
2023-02-05T14:20:36.510Z,5.50
2023-02-05T14:23:04.043Z,7.33
2023-02-05T14:25:43.426Z,7.83
2023-02-05T14:28:17.205Z,5.27
2023-02-05T14:30:51.517Z,6.83
2023-02-05T14:33:36.972Z,8.93
2023-02-05T14:36:22.495Z,4.93
2023-02-05T14:39:14.642Z,9.37
2023-02-05T14:41:42.222Z,7.53
2023-02-05T14:44:13.244Z,6.13
2023-02-05T14:46:58.833Z,4.63
2023-02-05T14:49:27.122Z,4.37
2023-02-05T14:51:55.508Z,7.70
2023-02-05T14:54:23.045Z,3.90
2023-02-05T14:56:54.167Z,7.45
2023-02-05T14:59:30.138Z,9.33
2023-02-05T15:01:57.664Z,4.87
2023-02-05T15:04:40.624Z,9.93
2023-02-05T15:07:08.138Z,5.33
2023-02-05T15:09:38.623Z,3.20
2023-02-05T15:12:25.807Z,7.00
2023-02-05T15:14:53.290Z,4.63
2023-02-05T15:17:30.544Z,6.77
2023-02-05T15:19:58.073Z,5.77
2023-02-05T15:22:34.249Z,5.87
2023-02-05T15:25:01.850Z,7.30
2023-02-05T15:27:41.102Z,5.07
2023-02-05T15:30:09.553Z,4.90
2023-02-05T15:32:37.070Z,7.90
2023-02-05T15:35:04.652Z,5.83
2023-02-05T15:37:38.216Z,6.63
2023-02-05T15:40:24.125Z,6.53
2023-02-05T15:42:52.213Z,6.93
2023-02-05T15:45:25.391Z,2.43
2023-02-05T15:48:01.710Z,6.00
2023-02-05T15:50:30.002Z,6.03
2023-02-05T15:52:58.289Z,4.53
2023-02-05T15:55:25.898Z,5.53
2023-02-05T15:57:53.408Z,3.73
2023-02-05T16:00:21.622Z,4.27
2023-02-05T16:02:54.917Z,4.43
2023-02-05T16:05:22.421Z,12.23
2023-02-05T16:07:49.952Z,18.43
2023-02-05T16:10:17.526Z,12.97
2023-02-05T16:13:06.921Z,10.30
2023-02-05T16:15:39.989Z,8.03
2023-02-05T16:18:13.887Z,6.23
2023-02-05T16:20:42.293Z,3.43
2023-02-05T16:23:09.867Z,4.33
2023-02-05T16:25:55.370Z,5.30
2023-02-05T16:28:38.271Z,4.63
2023-02-05T16:31:06.014Z,5.07
2023-02-05T16:33:37.114Z,4.03
2023-02-05T16:36:04.716Z,5.37
2023-02-05T16:38:32.980Z,7.77
2023-02-05T16:41:00.527Z,7.10
2023-02-05T16:43:36.802Z,4.10
2023-02-05T16:46:07.188Z,6.23
2023-02-05T16:48:47.140Z,6.23
2023-02-05T16:51:37.014Z,8.50
2023-02-05T16:54:04.490Z,5.30
2023-02-05T16:56:34.679Z,4.67
2023-02-05T16:59:02.271Z,5.20
2023-02-05T17:01:38.632Z,3.83
2023-02-05T17:04:06.152Z,4.00
2023-02-05T17:06:33.669Z,3.07
2023-02-05T17:09:02.033Z,5.10
2023-02-05T17:11:38.281Z,3.33
2023-02-05T17:14:33.313Z,4.15
2023-02-05T17:17:04.564Z,2.63
2023-02-05T17:19:32.877Z,4.77
2023-02-05T17:22:15.533Z,3.63
2023-02-05T17:24:43.042Z,4.97
2023-02-05T17:27:13.164Z,2.47
2023-02-05T17:29:40.737Z,4.33
2023-02-05T17:32:08.293Z,7.17
2023-02-05T17:34:35.817Z,6.00
2023-02-05T17:37:05.208Z,5.00
2023-02-05T17:39:32.474Z,4.43
2023-02-05T17:42:05.622Z,9.47
2023-02-05T17:44:33.195Z,9.20
2023-02-05T17:47:03.407Z,4.73
2023-02-05T17:49:30.942Z,7.63
2023-02-05T17:51:59.373Z,7.78
2023-02-05T17:54:27.683Z,6.20
2023-02-05T17:56:55.213Z,6.50
2023-02-05T17:59:22.804Z,8.53
2023-02-05T18:01:50.324Z,7.53
2023-02-05T18:04:21.177Z,5.87
2023-02-05T18:06:49.267Z,7.17
2023-02-05T18:09:16.796Z,5.07
2023-02-05T18:11:45.097Z,7.53
2023-02-05T18:14:12.693Z,8.10
2023-02-05T18:16:40.268Z,8.67
2023-02-05T18:19:07.745Z,9.50
2023-02-05T18:21:36.070Z,8.20
2023-02-05T18:24:03.604Z,11.73
2023-02-05T18:26:31.143Z,8.67
2023-02-05T18:28:59.492Z,8.37
2023-02-05T18:31:27.183Z,12.37
2023-02-05T18:33:54.534Z,8.43
2023-02-05T18:36:22.889Z,8.20
2023-02-05T18:38:50.412Z,4.50
2023-02-05T18:41:17.997Z,8.13
2023-02-05T18:43:45.543Z,13.87
2023-02-05T18:46:13.128Z,9.23
2023-02-05T18:48:43.040Z,8.53
2023-02-05T18:51:10.623Z,10.23
2023-02-05T18:53:38.925Z,6.03
2023-02-05T18:56:06.590Z,11.27
2023-02-05T18:58:34.154Z,12.13
2023-02-05T19:01:13.461Z,9.97
2023-02-05T19:03:41.367Z,8.10
2023-02-05T19:06:08.777Z,8.40
2023-02-05T19:08:37.070Z,8.77
2023-02-05T19:11:07.738Z,12.83
2023-02-05T19:13:37.114Z,11.83
2023-02-05T19:16:06.375Z,9.33
2023-02-05T19:18:34.508Z,10.70
2023-02-05T19:21:04.742Z,10.73
2023-02-05T19:23:32.257Z,10.53
2023-02-05T19:25:59.841Z,10.80
2023-02-05T19:28:27.375Z,9.27
2023-02-05T19:30:54.947Z,17.63
2023-02-05T19:33:23.831Z,11.43
2023-02-05T19:35:51.386Z,10.93
2023-02-05T19:38:18.936Z,17.47
2023-02-05T19:40:46.530Z,9.10
2023-02-05T19:43:14.077Z,18.07
2023-02-05T19:45:41.611Z,11.50
2023-02-05T19:48:09.178Z,9.80
2023-02-05T19:50:37.072Z,9.07
2023-02-05T19:53:04.236Z,10.33
2023-02-05T19:55:34.511Z,8.80
2023-02-05T19:58:02.787Z,10.37
2023-02-05T20:00:30.307Z,15.33
2023-02-05T20:02:57.874Z,12.87
2023-02-05T20:05:25.419Z,13.27
2023-02-05T20:07:52.957Z,12.00
2023-02-05T20:10:20.531Z,7.37
2023-02-05T20:12:50.731Z,10.97
2023-02-05T20:15:18.270Z,7.57
2023-02-05T20:17:47.280Z,11.50
2023-02-05T20:20:28.067Z,10.03
2023-02-05T20:22:42.277Z,11.27
2023-02-05T20:25:09.862Z,11.93
2023-02-05T20:27:37.392Z,16.23
2023-02-05T20:30:23.029Z,13.20
2023-02-05T20:32:51.259Z,9.17
2023-02-05T20:35:18.802Z,11.77
2023-02-05T20:37:47.142Z,14.10
2023-02-05T20:40:14.703Z,12.57
2023-02-05T20:42:42.188Z,14.53
2023-02-05T20:45:09.925Z,11.00
2023-02-05T20:47:37.448Z,9.53
2023-02-05T20:50:05.044Z,15.50
2023-02-05T20:52:32.628Z,15.80
2023-02-05T20:55:00.942Z,12.00
2023-02-05T20:57:28.492Z,10.20
2023-02-05T20:59:56.058Z,19.07
2023-02-05T21:02:23.586Z,11.20
2023-02-05T21:04:52.834Z,10.20
2023-02-05T21:07:19.460Z,13.40
2023-02-05T21:09:46.992Z,9.70
2023-02-05T21:12:14.525Z,13.17
2023-02-05T21:14:43.131Z,12.40
2023-02-05T21:17:10.678Z,11.37
2023-02-05T21:19:39.923Z,18.63
2023-02-05T21:22:07.670Z,8.97
2023-02-05T21:24:35.198Z,14.10
2023-02-05T21:27:03.507Z,14.00
2023-02-05T21:29:31.073Z,15.53
2023-02-05T21:31:58.630Z,13.03
2023-02-05T21:34:26.163Z,15.07
2023-02-05T21:36:54.515Z,12.87
2023-02-05T21:39:22.042Z,14.07
2023-02-05T21:41:49.563Z,18.93
2023-02-05T21:44:17.958Z,15.00
2023-02-05T21:46:45.506Z,17.57
2023-02-05T21:49:13.780Z,17.03
2023-02-05T21:51:41.331Z,20.23
2023-02-05T21:54:08.873Z,16.23
2023-02-05T21:56:37.147Z,19.40
2023-02-05T21:59:05.521Z,11.97
2023-02-05T22:01:33.034Z,16.37
2023-02-05T22:04:00.566Z,16.27
2023-02-05T22:06:28.145Z,10.90
2023-02-05T22:08:55.683Z,19.20
2023-02-05T22:11:25.231Z,16.83
2023-02-05T22:13:53.732Z,12.83
2023-02-05T22:16:21.307Z,15.60
2023-02-05T22:18:48.793Z,15.97
2023-02-05T22:21:16.387Z,14.63
2023-02-05T22:23:43.911Z,15.23
2023-02-05T22:26:11.451Z,10.80
2023-02-05T22:28:39.779Z,12.33
2023-02-05T22:31:07.321Z,12.30
2023-02-05T22:33:34.843Z,22.17
2023-02-05T22:36:03.460Z,12.50
2023-02-05T22:38:31.013Z,20.57
2023-02-05T22:40:58.584Z,12.97
2023-02-05T22:43:29.548Z,16.37
2023-02-05T22:45:57.142Z,14.60
2023-02-05T22:48:24.637Z,11.27
2023-02-05T22:50:52.210Z,11.50
2023-02-05T22:53:19.727Z,13.80
2023-02-05T22:55:48.030Z,14.30
2023-02-05T22:58:15.641Z,13.83
2023-02-05T23:00:43.166Z,13.37
2023-02-05T23:03:10.799Z,18.45
2023-02-05T23:05:38.294Z,18.97
2023-02-05T23:08:05.817Z,13.27
2023-02-05T23:10:33.352Z,8.17
2023-02-05T23:13:01.692Z,18.23
2023-02-05T23:15:29.217Z,16.77
2023-02-05T23:17:56.752Z,15.73
2023-02-05T23:20:24.326Z,17.33
2023-02-05T23:22:51.850Z,11.40
2023-02-05T23:25:19.380Z,14.50
2023-02-05T23:27:47.008Z,14.33
2023-02-05T23:30:14.527Z,14.33
2023-02-05T23:32:42.042Z,14.47
2023-02-05T23:35:09.983Z,16.07
2023-02-05T23:37:37.509Z,11.77
2023-02-05T23:40:05.061Z,13.67
2023-02-05T23:42:32.632Z,13.73
2023-02-05T23:45:00.957Z,16.23
2023-02-05T23:47:28.483Z,11.93
2023-02-05T23:49:56.814Z,7.70
2023-02-05T23:52:24.343Z,12.97
2023-02-05T23:54:51.871Z,12.83
2023-02-05T23:57:20.221Z,11.03
2023-02-05T23:59:47.755Z,14.80
